Time;durP1;ratioP1;P1;durP2;ratioP2;P2;SDS_P1;SDS_P2;PMS_P1;PMS_P2;Temp;Humidity;BMP_temperature;BMP_pressure;BME280_temperature;BME280_humidity;BME280_pressure;Samples;Min_cycle;Max_cycle;Signal;HPM_P1;HPM_P2
2021/07/18 00:01:46;;;;;;;30.10;21.80;;;;;;;;;;5096199;28;20395;-66
2021/07/18 00:04:12;;;;;;;33.10;21.30;;;;;;;;;;5094595;28;20471;-68
2021/07/18 00:06:38;;;;;;;31.73;21.13;;;;;;;;;;5095769;28;20877;-68
2021/07/18 00:09:05;;;;;;;30.67;21.40;;;;;;;;;;5094853;28;20423;-69
2021/07/18 00:11:31;;;;;;;23.70;20.30;;;;;;;;;;5096258;28;20428;-68
2021/07/18 00:13:57;;;;;;;28.13;19.53;;;;;;;;;;5077204;28;20404;-72
2021/07/18 00:16:23;;;;;;;27.70;19.40;;;;;;;;;;5095269;28;20447;-67
2021/07/18 00:18:49;;;;;;;27.77;20.47;;;;;;;;;;5102386;28;20509;-68
2021/07/18 00:21:15;;;;;;;27.73;20.43;;;;;;;;;;5096277;28;20428;-68
2021/07/18 00:23:42;;;;;;;31.67;20.50;;;;;;;;;;5095801;28;20441;-68
2021/07/18 00:26:08;;;;;;;26.03;20.07;;;;;;;;;;5076658;28;20452;-67
2021/07/18 00:28:34;;;;;;;22.37;18.10;;;;;;;;;;5096015;28;20403;-67
2021/07/18 00:31:00;;;;;;;25.00;18.50;;;;;;;;;;5094786;28;20511;-68
2021/07/18 00:33:27;;;;;;;26.07;18.50;;;;;;;;;;5096145;28;20837;-68
2021/07/18 00:35:53;;;;;;;25.10;18.57;;;;;;;;;;5095083;28;20462;-68
2021/07/18 00:38:19;;;;;;;21.67;17.80;;;;;;;;;;5091768;28;20785;-67
2021/07/18 00:40:45;;;;;;;22.03;17.37;;;;;;;;;;5096690;28;20434;-67
2021/07/18 00:43:11;;;;;;;24.87;18.93;;;;;;;;;;5095486;28;20399;-67
2021/07/18 00:45:37;;;;;;;27.40;18.77;;;;;;;;;;5102063;28;20447;-68
2021/07/18 00:48:03;;;;;;;25.93;18.60;;;;;;;;;;5116087;28;20407;-68
2021/07/18 00:50:30;;;;;;;22.37;18.13;;;;;;;;;;5103259;28;20431;-67
2021/07/18 00:52:56;;;;;;;26.37;18.37;;;;;;;;;;5095654;28;20400;-68
2021/07/18 00:55:22;;;;;;;22.80;17.60;;;;;;;;;;5094045;28;20456;-68
2021/07/18 00:57:49;;;;;;;29.53;18.73;;;;;;;;;;5095412;28;20400;-68
2021/07/18 01:00:16;;;;;;;22.30;18.43;;;;;;;;;;5093990;28;20484;-68
2021/07/18 01:02:43;;;;;;;25.17;17.90;;;;;;;;;;5095033;28;20396;-67
2021/07/18 01:05:10;;;;;;;22.23;17.70;;;;;;;;;;5093911;28;20448;-68
2021/07/18 01:07:36;;;;;;;23.23;18.07;;;;;;;;;;5095093;28;20400;-68
2021/07/18 01:10:03;;;;;;;21.17;16.63;;;;;;;;;;5090763;28;20454;-68
2021/07/18 01:12:29;;;;;;;25.23;16.77;;;;;;;;;;5078494;28;20941;-68
2021/07/18 01:14:55;;;;;;;24.60;17.43;;;;;;;;;;5093597;28;20458;-68
2021/07/18 01:17:21;;;;;;;23.23;16.47;;;;;;;;;;5094609;28;20474;-68
2021/07/18 01:19:47;;;;;;;23.97;16.40;;;;;;;;;;5082479;28;20799;-69
2021/07/18 01:22:14;;;;;;;21.93;16.67;;;;;;;;;;5093815;28;20969;-67
2021/07/18 01:24:40;;;;;;;30.90;15.67;;;;;;;;;;5094587;28;20397;-68
2021/07/18 01:27:06;;;;;;;23.33;15.60;;;;;;;;;;5093484;28;20423;-67
2021/07/18 01:29:33;;;;;;;23.70;16.03;;;;;;;;;;5095468;28;20404;-68
2021/07/18 01:31:59;;;;;;;24.00;17.87;;;;;;;;;;5078069;28;20425;-67
2021/07/18 01:34:25;;;;;;;19.17;14.30;;;;;;;;;;5075000;28;20437;-67
2021/07/18 01:36:52;;;;;;;23.30;15.20;;;;;;;;;;5075737;28;20453;-68
2021/07/18 01:39:18;;;;;;;25.10;17.73;;;;;;;;;;5073890;28;20467;-67
2021/07/18 01:41:44;;;;;;;20.37;14.90;;;;;;;;;;5074038;28;20768;-68
2021/07/18 01:44:10;;;;;;;22.37;16.33;;;;;;;;;;5080517;28;20404;-68
2021/07/18 01:46:36;;;;;;;20.60;13.87;;;;;;;;;;5081879;28;20452;-68
2021/07/18 01:49:09;;;;;;;24.10;14.70;;;;;;;;;;5082972;28;20408;-68
2021/07/18 01:51:35;;;;;;;17.30;14.27;;;;;;;;;;5082143;28;20504;-68
2021/07/18 01:54:02;;;;;;;22.50;14.67;;;;;;;;;;5078041;28;20405;-68
2021/07/18 01:56:28;;;;;;;15.30;13.20;;;;;;;;;;5076233;28;20463;-67
2021/07/18 01:58:54;;;;;;;18.50;13.27;;;;;;;;;;5075410;28;20409;-67
2021/07/18 02:01:25;;;;;;;18.50;12.97;;;;;;;;;;5084798;28;20518;-68
2021/07/18 02:03:51;;;;;;;19.77;13.70;;;;;;;;;;5093912;28;20389;-67
2021/07/18 02:06:17;;;;;;;20.23;13.23;;;;;;;;;;5083499;28;20506;-68
2021/07/18 02:08:44;;;;;;;17.50;12.90;;;;;;;;;;5073446;28;20421;-68
2021/07/18 02:11:11;;;;;;;13.67;11.50;;;;;;;;;;5081456;28;20428;-68
2021/07/18 02:13:38;;;;;;;17.77;12.90;;;;;;;;;;5094001;28;20397;-68
2021/07/18 02:16:04;;;;;;;25.07;13.23;;;;;;;;;;5092418;28;20803;-68
2021/07/18 02:18:30;;;;;;;21.63;13.80;;;;;;;;;;5093994;28;20414;-68
2021/07/18 02:20:57;;;;;;;18.20;11.80;;;;;;;;;;5086493;28;20417;-68
2021/07/18 02:23:23;;;;;;;17.30;12.60;;;;;;;;;;5073346;28;20428;-69
2021/07/18 02:25:50;;;;;;;19.70;12.63;;;;;;;;;;5076436;28;20447;-68
2021/07/18 02:28:16;;;;;;;20.20;13.93;;;;;;;;;;5093244;28;20500;-68
2021/07/18 02:30:42;;;;;;;16.97;12.00;;;;;;;;;;5092232;28;20787;-68
2021/07/18 02:33:08;;;;;;;19.73;11.77;;;;;;;;;;5093264;28;20465;-68
2021/07/18 02:35:34;;;;;;;19.67;12.67;;;;;;;;;;5089883;28;20459;-68
2021/07/18 02:38:00;;;;;;;22.13;13.90;;;;;;;;;;5072843;28;20831;-68
2021/07/18 02:40:26;;;;;;;19.97;13.10;;;;;;;;;;5073647;28;20749;-68
2021/07/18 02:42:53;;;;;;;20.20;11.67;;;;;;;;;;5075335;28;20399;-67
2021/07/18 02:45:21;;;;;;;18.07;13.10;;;;;;;;;;5092235;28;20449;-69
2021/07/18 02:47:47;;;;;;;15.57;10.67;;;;;;;;;;5092765;28;20432;-68
2021/07/18 02:50:15;;;;;;;14.17;10.50;;;;;;;;;;5088406;28;20426;-68
2021/07/18 02:52:42;;;;;;;18.87;11.53;;;;;;;;;;5091915;28;20419;-67
2021/07/18 02:55:08;;;;;;;13.83;10.77;;;;;;;;;;5092836;28;20416;-67
2021/07/18 02:57:34;;;;;;;14.20;9.00;;;;;;;;;;5103869;28;20884;-68
2021/07/18 03:00:00;;;;;;;11.87;9.50;;;;;;;;;;5092451;28;20752;-67
2021/07/18 03:02:26;;;;;;;17.33;8.50;;;;;;;;;;5094876;28;20512;-67
2021/07/18 03:04:52;;;;;;;15.37;9.20;;;;;;;;;;5099399;28;20387;-68
2021/07/18 03:07:18;;;;;;;14.60;9.53;;;;;;;;;;5088780;22;20477;-71
2021/07/18 03:09:44;;;;;;;11.33;8.10;;;;;;;;;;5059269;28;20397;-71
2021/07/18 03:12:10;;;;;;;10.90;8.37;;;;;;;;;;5062375;28;20425;-71
2021/07/18 03:14:37;;;;;;;15.13;8.40;;;;;;;;;;5059246;28;20436;-71
2021/07/18 03:17:03;;;;;;;16.23;9.30;;;;;;;;;;5059180;28;20468;-71
2021/07/18 03:19:29;;;;;;;12.60;8.70;;;;;;;;;;5059193;28;20414;-71
2021/07/18 03:21:55;;;;;;;12.67;8.33;;;;;;;;;;5070607;28;20482;-71
2021/07/18 03:24:21;;;;;;;12.10;8.23;;;;;;;;;;5079557;28;20405;-71
2021/07/18 03:26:47;;;;;;;13.47;7.20;;;;;;;;;;5078339;28;20944;-71
2021/07/18 03:29:13;;;;;;;10.60;8.63;;;;;;;;;;5074963;28;20427;-72
2021/07/18 03:31:39;;;;;;;11.80;7.10;;;;;;;;;;5066547;28;20491;-71
2021/07/18 03:34:05;;;;;;;10.03;6.70;;;;;;;;;;5059122;28;20404;-71
2021/07/18 03:36:31;;;;;;;15.10;8.47;;;;;;;;;;5066647;28;20487;-71
2021/07/18 03:38:57;;;;;;;16.27;7.50;;;;;;;;;;5079277;28;20400;-71
2021/07/18 03:41:23;;;;;;;10.90;6.97;;;;;;;;;;5078213;28;20431;-71
2021/07/18 03:43:49;;;;;;;11.27;6.93;;;;;;;;;;5079735;28;20758;-71
2021/07/18 03:46:15;;;;;;;12.37;7.10;;;;;;;;;;5073666;28;20452;-71
2021/07/18 03:48:41;;;;;;;9.20;6.10;;;;;;;;;;5058931;28;20440;-70
2021/07/18 03:51:08;;;;;;;11.00;6.77;;;;;;;;;;5062727;28;20464;-71
2021/07/18 03:53:34;;;;;;;9.97;7.10;;;;;;;;;;5072694;28;20436;-71
2021/07/18 03:56:00;;;;;;;9.93;6.27;;;;;;;;;;5083763;28;20469;-71
2021/07/18 03:58:26;;;;;;;9.67;6.30;;;;;;;;;;5082283;28;20427;-71
2021/07/18 04:00:52;;;;;;;9.97;6.90;;;;;;;;;;5096232;28;20788;-71
2021/07/18 04:03:18;;;;;;;9.33;6.90;;;;;;;;;;5079011;28;20408;-71
2021/07/18 04:05:44;;;;;;;12.00;6.37;;;;;;;;;;5077001;28;20452;-71
2021/07/18 04:08:10;;;;;;;10.60;7.33;;;;;;;;;;5078698;28;20912;-71
2021/07/18 04:10:36;;;;;;;14.73;6.90;;;;;;;;;;5079060;28;20455;-71
2021/07/18 04:13:02;;;;;;;11.60;6.70;;;;;;;;;;5058817;28;20432;-72
2021/07/18 04:15:28;;;;;;;13.03;7.40;;;;;;;;;;5054755;28;20837;-72
2021/07/18 04:17:54;;;;;;;10.17;6.67;;;;;;;;;;5072531;28;20433;-72
2021/07/18 04:20:20;;;;;;;9.23;6.17;;;;;;;;;;5075711;28;20484;-72
2021/07/18 04:22:46;;;;;;;14.30;7.70;;;;;;;;;;5058603;28;20418;-72
2021/07/18 04:25:12;;;;;;;11.30;6.23;;;;;;;;;;5054073;28;20414;-72
2021/07/18 04:27:38;;;;;;;11.87;6.90;;;;;;;;;;5070010;28;20922;-72
2021/07/18 04:30:05;;;;;;;9.77;5.80;;;;;;;;;;5075465;28;20420;-72
2021/07/18 04:32:31;;;;;;;12.33;6.37;;;;;;;;;;5060934;28;20426;-72
2021/07/18 04:34:57;;;;;;;16.77;6.70;;;;;;;;;;5055212;28;20883;-72
2021/07/18 04:37:23;;;;;;;13.40;7.07;;;;;;;;;;5054943;28;20469;-72
2021/07/18 04:39:49;;;;;;;12.63;7.07;;;;;;;;;;5085710;28;20435;-72
2021/07/18 04:42:15;;;;;;;10.70;7.07;;;;;;;;;;5082540;28;20428;-71
2021/07/18 04:44:41;;;;;;;8.10;6.00;;;;;;;;;;5075118;28;20444;-72
2021/07/18 04:47:07;;;;;;;9.07;5.87;;;;;;;;;;5074440;28;20444;-72
2021/07/18 04:49:33;;;;;;;8.00;6.03;;;;;;;;;;5074987;28;20444;-72
2021/07/18 04:51:59;;;;;;;12.47;6.30;;;;;;;;;;5074188;28;20429;-72
2021/07/18 04:54:25;;;;;;;9.80;6.00;;;;;;;;;;5074920;28;20405;-72
2021/07/18 04:56:51;;;;;;;8.57;5.73;;;;;;;;;;5073710;28;20909;-72
2021/07/18 04:59:18;;;;;;;8.20;5.90;;;;;;;;;;5074876;28;20436;-71
2021/07/18 05:01:45;;;;;;;11.30;5.80;;;;;;;;;;5073826;28;20486;-72
2021/07/18 05:04:11;;;;;;;8.20;5.53;;;;;;;;;;5074791;28;20401;-72
2021/07/18 05:06:37;;;;;;;10.37;6.90;;;;;;;;;;5071720;28;20504;-72
2021/07/18 05:09:03;;;;;;;8.93;5.53;;;;;;;;;;5054572;28;20398;-72
2021/07/18 05:11:29;;;;;;;10.73;5.43;;;;;;;;;;5057310;28;20439;-72
2021/07/18 05:13:55;;;;;;;7.33;5.20;;;;;;;;;;5093262;28;20504;-72
2021/07/18 05:16:21;;;;;;;6.40;4.67;;;;;;;;;;5090086;28;20659;-71
2021/07/18 05:18:47;;;;;;;11.53;4.60;;;;;;;;;;5074286;28;20409;-72
2021/07/18 05:21:13;;;;;;;10.70;4.87;;;;;;;;;;5073380;28;20420;-72
2021/07/18 05:23:40;;;;;;;13.37;5.00;;;;;;;;;;5074286;28;20769;-72
2021/07/18 05:26:06;;;;;;;7.50;4.97;;;;;;;;;;5073002;28;20432;-72
2021/07/18 05:28:32;;;;;;;5.50;4.73;;;;;;;;;;5074250;28;20416;-72
2021/07/18 05:30:58;;;;;;;8.40;5.67;;;;;;;;;;5074245;28;20397;-72
2021/07/18 05:33:24;;;;;;;8.70;5.20;;;;;;;;;;5054839;28;20513;-72
2021/07/18 05:35:52;;;;;;;10.03;5.10;;;;;;;;;;5054166;28;20568;-72
2021/07/18 05:38:18;;;;;;;7.30;4.50;;;;;;;;;;5071179;28;20436;-72
2021/07/18 05:40:44;;;;;;;9.87;5.73;;;;;;;;;;5074045;28;20412;-72
2021/07/18 05:43:10;;;;;;;9.70;4.67;;;;;;;;;;5057181;28;20906;-72
2021/07/18 05:45:36;;;;;;;5.73;4.20;;;;;;;;;;5064606;28;20816;-72
2021/07/18 05:48:02;;;;;;;5.80;4.57;;;;;;;;;;5077167;28;20802;-71
2021/07/18 05:50:28;;;;;;;18.57;4.87;;;;;;;;;;5074191;28;20873;-72
2021/07/18 05:52:54;;;;;;;6.53;4.40;;;;;;;;;;5072833;28;20508;-72
2021/07/18 05:55:22;;;;;;;10.70;5.07;;;;;;;;;;5072618;28;20945;-71
2021/07/18 05:57:48;;;;;;;6.90;3.50;;;;;;;;;;5060352;28;20429;-71
2021/07/18 06:00:15;;;;;;;8.27;5.00;;;;;;;;;;5053816;28;20409;-71
2021/07/18 06:02:42;;;;;;;9.10;4.90;;;;;;;;;;5064636;28;20433;-71
2021/07/18 06:05:08;;;;;;;11.03;4.80;;;;;;;;;;5073358;28;20500;-71
2021/07/18 06:07:35;;;;;;;8.57;4.47;;;;;;;;;;5072305;28;20948;-71
2021/07/18 06:10:01;;;;;;;9.10;5.17;;;;;;;;;;5073436;28;20459;-71
2021/07/18 06:12:27;;;;;;;7.03;4.20;;;;;;;;;;5065031;28;20429;-71
2021/07/18 06:14:53;;;;;;;7.20;4.43;;;;;;;;;;5053498;28;20800;-71
2021/07/18 06:17:19;;;;;;;6.70;4.00;;;;;;;;;;5060931;28;20828;-71
2021/07/18 06:19:45;;;;;;;6.93;4.60;;;;;;;;;;5078196;28;20473;-71
2021/07/18 06:22:11;;;;;;;6.50;3.87;;;;;;;;;;5085264;28;20437;-71
2021/07/18 06:24:37;;;;;;;8.63;4.47;;;;;;;;;;5073229;28;20393;-71
2021/07/18 06:27:04;;;;;;;11.23;4.30;;;;;;;;;;5067232;28;20453;-71
2021/07/18 06:29:30;;;;;;;12.60;4.40;;;;;;;;;;5053362;28;20417;-71
2021/07/18 06:31:56;;;;;;;8.70;4.37;;;;;;;;;;5057231;28;20432;-71
2021/07/18 06:34:22;;;;;;;5.67;4.13;;;;;;;;;;5073064;28;20930;-72
2021/07/18 06:36:48;;;;;;;6.30;4.23;;;;;;;;;;5068874;28;20464;-72
2021/07/18 06:39:15;;;;;;;9.30;3.80;;;;;;;;;;5053270;28;20460;-72
2021/07/18 06:41:41;;;;;;;8.00;3.97;;;;;;;;;;5054127;28;20451;-72
2021/07/18 06:44:07;;;;;;;9.70;4.30;;;;;;;;;;5072982;28;20397;-70
2021/07/18 06:46:33;;;;;;;7.90;4.37;;;;;;;;;;5071999;28;20424;-72
2021/07/18 06:49:00;;;;;;;5.37;4.20;;;;;;;;;;5051566;28;20449;-71
2021/07/18 06:51:26;;;;;;;6.40;4.30;;;;;;;;;;5052920;28;20406;-72
2021/07/18 06:53:52;;;;;;;6.37;4.00;;;;;;;;;;5072007;28;20512;-72
2021/07/18 06:56:18;;;;;;;11.40;4.90;;;;;;;;;;5072968;28;20472;-72
2021/07/18 06:58:44;;;;;;;9.47;4.67;;;;;;;;;;5071791;28;20833;-72
2021/07/18 07:01:10;;;;;;;6.97;4.13;;;;;;;;;;5072970;28;20432;-72
2021/07/18 07:03:36;;;;;;;6.53;4.00;;;;;;;;;;5071790;28;20459;-72
2021/07/18 07:06:03;;;;;;;6.47;4.17;;;;;;;;;;5072532;28;20866;-72
2021/07/18 07:08:29;;;;;;;5.70;3.90;;;;;;;;;;5056790;28;20525;-72
2021/07/18 07:10:55;;;;;;;9.43;4.00;;;;;;;;;;5052765;28;20440;-72
2021/07/18 07:13:21;;;;;;;10.50;4.20;;;;;;;;;;5074346;28;20784;-72
2021/07/18 07:15:47;;;;;;;7.23;4.93;;;;;;;;;;5092756;28;20454;-72
2021/07/18 07:18:13;;;;;;;4.90;3.40;;;;;;;;;;5078501;28;20434;-72
2021/07/18 07:20:39;;;;;;;5.93;3.37;;;;;;;;;;5071670;28;20413;-72
2021/07/18 07:23:05;;;;;;;7.50;4.37;;;;;;;;;;5060815;28;20932;-72
2021/07/18 07:25:31;;;;;;;7.33;3.70;;;;;;;;;;5058294;28;20440;-72
2021/07/18 07:27:57;;;;;;;5.43;3.97;;;;;;;;;;5062154;28;20822;-72
2021/07/18 07:30:23;;;;;;;8.00;3.70;;;;;;;;;;5052513;28;20394;-72
2021/07/18 07:32:49;;;;;;;6.83;4.10;;;;;;;;;;5061222;28;20429;-72
2021/07/18 07:35:16;;;;;;;7.00;4.50;;;;;;;;;;5072368;28;20397;-72
2021/07/18 07:37:43;;;;;;;8.83;3.70;;;;;;;;;;5073263;28;20428;-72
2021/07/18 07:40:10;;;;;;;7.43;4.03;;;;;;;;;;5093046;28;20420;-72
2021/07/18 07:42:36;;;;;;;5.70;3.73;;;;;;;;;;5086284;28;20426;-72
2021/07/18 07:45:02;;;;;;;6.33;3.67;;;;;;;;;;5072368;28;20400;-72
2021/07/18 07:47:28;;;;;;;4.53;3.50;;;;;;;;;;5071318;28;20950;-72
2021/07/18 07:49:54;;;;;;;7.17;3.43;;;;;;;;;;5066813;28;20520;-72
2021/07/18 07:52:20;;;;;;;5.67;3.73;;;;;;;;;;5056089;28;21005;-72
2021/07/18 07:54:47;;;;;;;6.20;3.70;;;;;;;;;;5074785;28;20511;-72
2021/07/18 07:57:13;;;;;;;6.90;3.60;;;;;;;;;;5076000;28;20500;-72
2021/07/18 07:59:39;;;;;;;3.83;3.13;;;;;;;;;;5075027;28;20482;-72
2021/07/18 08:02:05;;;;;;;7.13;4.13;;;;;;;;;;5075961;28;20397;-72
2021/07/18 08:04:31;;;;;;;7.10;4.57;;;;;;;;;;5058595;28;20421;-72
2021/07/18 08:06:57;;;;;;;10.93;4.20;;;;;;;;;;5055695;28;20480;-72
2021/07/18 08:09:23;;;;;;;7.90;4.07;;;;;;;;;;5055864;28;20531;-72
2021/07/18 08:11:49;;;;;;;9.00;5.40;;;;;;;;;;5058777;28;20436;-72
2021/07/18 08:14:16;;;;;;;9.60;3.80;;;;;;;;;;5074819;28;20788;-72
2021/07/18 08:16:42;;;;;;;5.73;3.90;;;;;;;;;;5075536;28;21058;-72
2021/07/18 08:19:08;;;;;;;5.47;4.50;;;;;;;;;;5074788;28;20428;-72
2021/07/18 08:21:34;;;;;;;7.10;4.33;;;;;;;;;;5075811;28;20763;-72
2021/07/18 08:24:00;;;;;;;5.33;3.57;;;;;;;;;;5074309;28;20784;-72
2021/07/18 08:26:27;;;;;;;7.47;4.13;;;;;;;;;;5075299;28;20429;-72
2021/07/18 08:28:53;;;;;;;6.37;3.60;;;;;;;;;;5074191;28;20436;-72
2021/07/18 08:31:19;;;;;;;8.03;4.97;;;;;;;;;;5075291;28;20451;-72
2021/07/18 08:33:45;;;;;;;5.97;3.43;;;;;;;;;;5064277;28;20494;-72
2021/07/18 08:36:12;;;;;;;9.03;4.50;;;;;;;;;;5055345;28;20465;-72
2021/07/18 08:38:38;;;;;;;8.57;4.47;;;;;;;;;;5055074;28;20430;-72
2021/07/18 08:41:04;;;;;;;4.90;3.93;;;;;;;;;;5055230;28;20811;-72
2021/07/18 08:43:31;;;;;;;6.53;4.27;;;;;;;;;;5061754;28;20722;-72
2021/07/18 08:45:57;;;;;;;8.50;4.73;;;;;;;;;;5073994;28;20868;-72
2021/07/18 08:48:23;;;;;;;9.40;4.80;;;;;;;;;;5074164;28;20440;-72
2021/07/18 08:50:50;;;;;;;4.33;3.70;;;;;;;;;;5075273;28;20765;-72
2021/07/18 08:53:16;;;;;;;7.10;4.20;;;;;;;;;;5069906;28;20421;-72
2021/07/18 08:55:42;;;;;;;8.93;4.33;;;;;;;;;;5054694;28;20445;-72
2021/07/18 08:58:08;;;;;;;10.73;4.50;;;;;;;;;;5054874;28;21453;-72
2021/07/18 09:00:34;;;;;;;9.47;4.90;;;;;;;;;;5054157;28;20398;-72
2021/07/18 09:03:00;;;;;;;6.40;4.27;;;;;;;;;;5056148;28;20802;-72
2021/07/18 09:05:29;;;;;;;7.73;4.97;;;;;;;;;;5074844;28;20893;-72
2021/07/18 09:07:56;;;;;;;9.73;5.87;;;;;;;;;;5073909;28;20390;-72
2021/07/18 09:10:22;;;;;;;8.33;5.53;;;;;;;;;;5074733;28;20403;-72
2021/07/18 09:13:07;;;;;;;6.70;4.70;;;;;;;;;;5073924;28;20500;-72
2021/07/18 09:15:39;;;;;;;6.00;4.40;;;;;;;;;;5054869;28;20433;-72
2021/07/18 09:18:09;;;;;;;10.73;5.77;;;;;;;;;;5054823;28;20433;-72
2021/07/18 09:20:40;;;;;;;8.80;6.50;;;;;;;;;;5054412;28;20398;-72
2021/07/18 09:23:10;;;;;;;7.43;4.90;;;;;;;;;;5055482;28;20459;-72
2021/07/18 09:25:36;;;;;;;15.03;5.80;;;;;;;;;;5074247;28;20424;-72
2021/07/18 09:28:13;;;;;;;9.63;5.27;;;;;;;;;;5071953;28;20462;-72
2021/07/18 09:30:39;;;;;;;15.07;5.50;;;;;;;;;;5074629;28;20436;-72
2021/07/18 09:33:05;;;;;;;7.70;5.50;;;;;;;;;;5075068;28;20466;-72
2021/07/18 09:35:31;;;;;;;7.53;6.00;;;;;;;;;;5074148;28;20424;-72
2021/07/18 09:37:57;;;;;;;8.27;5.63;;;;;;;;;;5073284;28;20421;-72
2021/07/18 09:40:25;;;;;;;9.73;6.73;;;;;;;;;;5073652;28;20534;-72
2021/07/18 09:43:01;;;;;;;9.10;6.03;;;;;;;;;;5073945;28;20393;-72
2021/07/18 09:45:32;;;;;;;9.53;6.03;;;;;;;;;;5052589;28;20497;-72
2021/07/18 09:47:58;;;;;;;7.60;5.40;;;;;;;;;;5053861;28;20391;-72
2021/07/18 09:50:32;;;;;;;16.03;7.77;;;;;;;;;;5053946;28;20476;-72
2021/07/18 09:53:05;;;;;;;10.30;6.70;;;;;;;;;;5080220;28;20420;-72
2021/07/18 09:55:31;;;;;;;9.70;6.60;;;;;;;;;;5053647;28;20922;-72
2021/07/18 09:57:57;;;;;;;15.13;7.80;;;;;;;;;;5053776;28;20414;-72
2021/07/18 10:00:35;;;;;;;11.43;6.73;;;;;;;;;;5072488;28;20436;-72
2021/07/18 10:03:09;;;;;;;11.07;5.70;;;;;;;;;;5073525;28;20397;-72
2021/07/18 10:05:35;;;;;;;15.20;7.67;;;;;;;;;;5053637;28;20433;-72
2021/07/18 10:08:05;;;;;;;9.93;6.13;;;;;;;;;;5053496;28;20909;-72
2021/07/18 10:10:31;;;;;;;10.83;6.30;;;;;;;;;;5053808;28;20393;-72
2021/07/18 10:12:57;;;;;;;9.33;6.53;;;;;;;;;;5052412;28;20481;-72
2021/07/18 10:15:23;;;;;;;9.40;6.50;;;;;;;;;;5070425;28;20776;-72
2021/07/18 10:17:50;;;;;;;11.47;6.93;;;;;;;;;;5073173;28;20437;-72
2021/07/18 10:20:16;;;;;;;10.97;7.67;;;;;;;;;;5071470;28;20519;-72
2021/07/18 10:22:43;;;;;;;10.70;6.37;;;;;;;;;;5073304;28;20397;-72
2021/07/18 10:25:12;;;;;;;10.77;6.23;;;;;;;;;;5071706;28;20443;-72
2021/07/18 10:27:39;;;;;;;11.00;7.47;;;;;;;;;;5057109;28;20813;-72
2021/07/18 10:30:06;;;;;;;11.20;7.87;;;;;;;;;;5066089;28;20432;-72
2021/07/18 10:32:34;;;;;;;11.80;8.23;;;;;;;;;;5072926;28;20416;-72
2021/07/18 10:35:00;;;;;;;13.43;9.17;;;;;;;;;;5060187;28;20905;-72
2021/07/18 10:37:38;;;;;;;13.77;8.40;;;;;;;;;;5052874;28;20541;-72
2021/07/18 10:40:14;;;;;;;14.40;9.17;;;;;;;;;;5065225;28;20482;-72
2021/07/18 10:42:40;;;;;;;10.80;9.43;;;;;;;;;;5073081;28;20411;-72
2021/07/18 10:45:17;;;;;;;13.53;10.90;;;;;;;;;;5059807;28;20946;-72
2021/07/18 10:47:56;;;;;;;15.60;11.20;;;;;;;;;;5052855;28;20402;-72
2021/07/18 10:50:41;;;;;;;18.07;13.23;;;;;;;;;;5066973;28;20429;-72
2021/07/18 10:53:16;;;;;;;14.47;12.07;;;;;;;;;;5072755;28;20491;-72
2021/07/18 10:55:42;;;;;;;19.20;12.30;;;;;;;;;;5057028;28;20560;-72
2021/07/18 10:58:08;;;;;;;15.90;12.83;;;;;;;;;;5051545;28;20402;-72
2021/07/18 11:00:34;;;;;;;13.43;11.60;;;;;;;;;;5068148;28;20839;-72
2021/07/18 11:03:13;;;;;;;17.00;12.20;;;;;;;;;;5072756;28;20442;-72
2021/07/18 11:05:43;;;;;;;19.13;12.93;;;;;;;;;;5071776;28;20460;-72
2021/07/18 11:08:10;;;;;;;18.10;12.30;;;;;;;;;;5071636;28;20862;-72
2021/07/18 11:10:46;;;;;;;14.50;11.50;;;;;;;;;;5056792;28;20425;-72
2021/07/18 11:13:12;;;;;;;14.33;11.87;;;;;;;;;;5053218;28;20389;-72
2021/07/18 11:15:39;;;;;;;15.90;11.73;;;;;;;;;;5067943;28;20441;-72
2021/07/18 11:18:07;;;;;;;17.37;13.57;;;;;;;;;;5071436;28;20806;-72
2021/07/18 11:20:39;;;;;;;16.40;13.00;;;;;;;;;;5057480;28;20858;-73
2021/07/18 11:23:06;;;;;;;17.50;12.90;;;;;;;;;;5056378;28;20435;-73
2021/07/18 11:25:38;;;;;;;21.30;13.70;;;;;;;;;;5066805;28;20453;-73
2021/07/18 11:28:04;;;;;;;17.13;12.30;;;;;;;;;;5056717;28;20429;-73
2021/07/18 11:30:40;;;;;;;16.07;11.90;;;;;;;;;;5070011;28;20423;-72
2021/07/18 11:33:24;;;;;;;15.37;12.27;;;;;;;;;;5075452;28;20432;-74
2021/07/18 11:35:54;;;;;;;18.07;12.07;;;;;;;;;;5072577;28;20493;-73
2021/07/18 11:38:20;;;;;;;17.27;12.37;;;;;;;;;;5076623;28;20412;-73
2021/07/18 11:40:47;;;;;;;17.43;12.77;;;;;;;;;;5075646;28;20424;-72
2021/07/18 11:43:13;;;;;;;23.33;12.67;;;;;;;;;;5075928;28;20896;-72
2021/07/18 11:45:39;;;;;;;15.20;12.20;;;;;;;;;;5074914;28;20448;-72
2021/07/18 11:48:05;;;;;;;19.07;12.33;;;;;;;;;;5075919;28;20405;-72
2021/07/18 11:50:31;;;;;;;18.53;12.40;;;;;;;;;;5074654;28;20913;-72
2021/07/18 11:52:59;;;;;;;16.83;12.47;;;;;;;;;;5075811;28;20407;-72
2021/07/18 11:55:26;;;;;;;17.70;12.40;;;;;;;;;;5075117;28;20432;-72
2021/07/18 11:57:52;;;;;;;16.90;11.60;;;;;;;;;;5074616;28;20432;-72
2021/07/18 12:00:19;;;;;;;16.70;12.77;;;;;;;;;;5066541;28;20424;-72
2021/07/18 12:02:46;;;;;;;17.60;13.03;;;;;;;;;;5075920;28;20401;-73
2021/07/18 12:05:12;;;;;;;13.53;11.90;;;;;;;;;;5074739;28;20436;-73
2021/07/18 12:07:39;;;;;;;17.20;12.23;;;;;;;;;;5074595;28;20470;-73
2021/07/18 12:10:05;;;;;;;20.97;12.70;;;;;;;;;;5073513;28;20986;-73
2021/07/18 12:12:31;;;;;;;17.63;12.07;;;;;;;;;;5075544;28;20404;-72
2021/07/18 12:14:58;;;;;;;15.40;12.73;;;;;;;;;;5073183;28;20507;-73
2021/07/18 12:17:24;;;;;;;16.67;13.10;;;;;;;;;;5075310;28;20451;-73
2021/07/18 12:19:50;;;;;;;13.43;11.83;;;;;;;;;;5073536;28;20434;-73
2021/07/18 12:22:19;;;;;;;15.40;12.90;;;;;;;;;;5075630;28;20446;-73
2021/07/18 12:24:48;;;;;;;20.43;12.03;;;;;;;;;;5081303;28;20455;-73
2021/07/18 12:27:21;;;;;;;15.27;11.20;;;;;;;;;;5075279;28;20427;-73
2021/07/18 12:29:49;;;;;;;18.50;12.03;;;;;;;;;;5074305;28;20428;-73
2021/07/18 12:32:15;;;;;;;18.57;12.37;;;;;;;;;;5075164;28;20415;-73
2021/07/18 12:34:43;;;;;;;13.97;11.90;;;;;;;;;;5073256;28;20429;-73
2021/07/18 12:37:09;;;;;;;17.53;12.50;;;;;;;;;;5075041;28;20956;-72
2021/07/18 12:39:35;;;;;;;14.83;11.70;;;;;;;;;;5074302;28;20804;-73
2021/07/18 12:42:03;;;;;;;16.07;11.93;;;;;;;;;;5088694;28;20438;-73
2021/07/18 12:44:34;;;;;;;15.70;11.03;;;;;;;;;;5088418;28;21020;-73
2021/07/18 12:47:21;;;;;;;15.63;12.10;;;;;;;;;;5053682;28;20464;-73
2021/07/18 12:50:06;;;;;;;15.50;11.43;;;;;;;;;;5059222;28;20424;-73
2021/07/18 12:52:32;;;;;;;12.30;10.73;;;;;;;;;;5075018;28;20408;-73
2021/07/18 12:55:10;;;;;;;13.50;12.10;;;;;;;;;;5074319;28;20478;-73
2021/07/18 12:57:36;;;;;;;12.40;11.03;;;;;;;;;;5073484;28;20455;-73
2021/07/18 13:00:04;;;;;;;15.47;11.37;;;;;;;;;;5073993;28;20909;-71
2021/07/18 13:02:30;;;;;;;12.47;10.67;;;;;;;;;;5074839;28;20760;-71
2021/07/18 13:05:03;;;;;;;19.50;11.90;;;;;;;;;;5069055;28;20436;-71
2021/07/18 13:07:29;;;;;;;14.67;11.77;;;;;;;;;;5054522;28;20467;-72
2021/07/18 13:10:11;;;;;;;12.30;11.00;;;;;;;;;;5059275;28;20424;-72
2021/07/18 13:12:38;;;;;;;14.87;11.03;;;;;;;;;;5074624;28;20397;-72
2021/07/18 13:15:16;;;;;;;13.30;11.90;;;;;;;;;;5073619;28;20437;-72
2021/07/18 13:17:52;;;;;;;13.40;11.20;;;;;;;;;;5094800;28;20451;-72
2021/07/18 13:20:19;;;;;;;13.87;10.00;;;;;;;;;;5085683;28;20428;-72
2021/07/18 13:22:45;;;;;;;13.90;11.50;;;;;;;;;;5074666;28;20764;-72
2021/07/18 13:25:21;;;;;;;14.23;11.50;;;;;;;;;;5069969;28;20431;-73
2021/07/18 13:27:47;;;;;;;16.43;11.53;;;;;;;;;;5054217;28;20397;-72
2021/07/18 13:30:14;;;;;;;14.40;10.63;;;;;;;;;;5060020;28;20443;-73
2021/07/18 13:32:41;;;;;;;15.80;11.33;;;;;;;;;;5074238;28;20409;-73
2021/07/18 13:35:17;;;;;;;13.23;10.40;;;;;;;;;;5073088;28;20478;-73
2021/07/18 13:37:43;;;;;;;12.37;11.03;;;;;;;;;;5074259;28;20589;-73
2021/07/18 13:40:28;;;;;;;12.87;10.53;;;;;;;;;;5073917;28;20988;-73
2021/07/18 13:43:09;;;;;;;12.83;10.30;;;;;;;;;;5074122;28;20393;-73
2021/07/18 13:45:37;;;;;;;10.50;9.00;;;;;;;;;;5072759;28;20448;-73
2021/07/18 13:48:04;;;;;;;10.97;9.77;;;;;;;;;;5073802;28;20419;-73
2021/07/18 13:50:30;;;;;;;10.90;9.77;;;;;;;;;;5071678;28;20766;-73
2021/07/18 13:52:56;;;;;;;15.07;9.97;;;;;;;;;;5073802;28;20403;-72
2021/07/18 13:55:22;;;;;;;11.77;9.70;;;;;;;;;;5072854;28;20811;-73
2021/07/18 13:57:48;;;;;;;14.53;10.10;;;;;;;;;;5073689;28;20493;-73
2021/07/18 14:00:14;;;;;;;13.20;8.90;;;;;;;;;;5072927;28;20466;-73
2021/07/18 14:02:40;;;;;;;13.93;10.20;;;;;;;;;;5073671;28;20401;-72
2021/07/18 14:05:07;;;;;;;10.53;9.43;;;;;;;;;;5072526;28;20971;-73
2021/07/18 14:07:33;;;;;;;8.90;8.00;;;;;;;;;;5073718;28;20947;-73
2021/07/18 14:09:59;;;;;;;9.40;8.00;;;;;;;;;;5072386;28;20429;-72
2021/07/18 14:12:25;;;;;;;10.50;8.00;;;;;;;;;;5073676;28;20874;-73
2021/07/18 14:14:51;;;;;;;10.87;8.73;;;;;;;;;;5072293;28;20495;-73
2021/07/18 14:17:17;;;;;;;10.63;8.60;;;;;;;;;;5073282;28;20448;-73
2021/07/18 14:19:43;;;;;;;11.33;8.27;;;;;;;;;;5072623;28;20404;-73
2021/07/18 14:22:09;;;;;;;9.30;8.40;;;;;;;;;;5072576;28;20499;-73
2021/07/18 14:24:36;;;;;;;9.40;8.13;;;;;;;;;;5072661;28;20401;-73
2021/07/18 14:27:05;;;;;;;8.47;7.57;;;;;;;;;;5072445;28;20459;-73
2021/07/18 14:29:31;;;;;;;9.07;7.60;;;;;;;;;;5073255;28;20411;-73